Tuesday, February 20, 2018, 4:43 AM EST
Back to Local

KGNR, Greenville

Location: Greenville, ME, United States Lat: 45.467
Local Time: 4:43 AM EST ( 9:43 GMT) Lon: -69.583
Time Zone: US/Eastern Elev: 1400 ft

Show me the last for .
Show Decoded

2018-02-20 03:56 METAR KGNR 200856Z AUTO 00000KT 01/01 A3017 RMK AO1 SLP234 P0002 60003 T00060006
                 53004 =
2018-02-20 02:56 METAR KGNR 200756Z AUTO 13003KT 01/01 A3014 RMK AO1 SLP224 P0001 T00060006 =
2018-02-20 01:56 METAR KGNR 200656Z AUTO 11003KT 01/01 A3015 RMK AO1 SLP226 T00060006 =
2018-02-20 00:56 METAR KGNR 200556Z AUTO 13004KT 01/01 A3016 RMK AO1 SLP230 60003 T00060006 10006
                 20000 50002 =
2018-02-19 23:56 METAR KGNR 200456Z AUTO 10004KT 01/01 A3016 RMK AO1 SLP230 T00060006 400391111 =
2018-02-19 22:56 METAR KGNR 200356Z AUTO 12005KT 00/00 A3016 RMK AO1 SLP233 T00000000 =
2018-02-19 21:56 METAR KGNR 200256Z AUTO 10005KT 00/00 A3015 RMK AO1 SLP230 60003 T00000000 58009
                 =
2018-02-19 20:56 METAR KGNR 200156Z AUTO VRB03KT 00/00 A3018 RMK AO1 SLP240 P0002 T00000000 =
2018-02-19 19:56 METAR KGNR 200056Z AUTO 15006KT 00/M02 A3017 RMK AO1 SLP237 P0001 T00001017 =
2018-02-19 18:56 METAR KGNR 192356Z AUTO 16005KT 00/M03 A3018 RMK AO1 SLP242 T00001028 10039
                 20000 58006 =
2018-02-19 17:56 METAR KGNR 192256Z AUTO 16005KT 01/M04 A3019 RMK AO1 SLP246 T00061039 =
2018-02-19 16:56 METAR KGNR 192156Z AUTO 18007KT 130V210 02/M04 A3019 RMK AO1 SLP247 T00171044 =
2018-02-19 15:56 METAR KGNR 192056Z AUTO 19009G23KT 170V230 03/M05 A3020 RMK AO1 SLP247 T00281050
                 56014 =
2018-02-19 14:56 METAR KGNR 191956Z AUTO 19009G16KT 03/M04 A3022 RMK AO1 PRESRR SLP253 T00331044
                 =
2018-02-19 13:56 METAR KGNR 191856Z AUTO 17008G20KT 130V200 03/M05 A3021 RMK AO1 SLP249 T00281050
                 =
2018-02-19 12:56 METAR KGNR 191756Z AUTO 19012G20KT 02/M05 A3024 RMK AO1 PK WND 21030/1714 SLP262
                 T00221050 10022 21067 58041 =
2018-02-19 11:56 METAR KGNR 191656Z AUTO 18011G26KT 01/M06 A3029 RMK AO1 PK WND 18026/1648 SLP281
                 T00111056 =
2018-02-19 10:56 METAR KGNR 191556Z AUTO 17010G20KT M01/M06 A3032 RMK AO1 SLP290 T10061061 =
2018-02-19 09:56 METAR KGNR 191456Z AUTO 16008G17KT 130V200 M01/M06 A3036 RMK AO1 SLP306
                 T10111061 58009 =
2018-02-19 08:56 METAR KGNR 191356Z AUTO 16006KT M03/M08 A3039 RMK AO1 SLP317 T10331078 =
2018-02-19 07:56 METAR KGNR 191256Z AUTO 15007KT M05/M09 A3038 RMK AO1 SLP313 T10501089 =
2018-02-19 06:56 METAR KGNR 191156Z AUTO 16005KT M07/M10 A3039 RMK AO1 SLP318 70002 T10671100
                 11050 21111 53005 =
2018-02-19 05:56 METAR KGNR 191056Z AUTO 18005KT M07/M10 A3039 RMK AO1 SLP315 T10671100 =
2018-02-19 04:56 METAR KGNR 190956Z AUTO 00000KT M08/M11 A3038 RMK AO1 SLP314 T10831106 =

Support USWX by starting your Amazon purchase here.